Terminal Aerodrome Forecast
Issued by NWS

Home | Current Version | Previous Version | Graphics & Text | Print | Product List | Glossary On
Versions: 1 2 3 4 5 6 7 8 9 10 11 12 13 14 15
000
FTUS43 KICT 040521
TAFSLN
TAF
KSLN 040521Z 0406/0506 01015G22KT P6SM OVC035
     FM040900 01015G22KT 3SM -SN OVC025
      TEMPO 0411/0413 1SM -SN OVC015
     FM041700 01013KT P6SM SCT020 BKN100
     FM042300 01005KT P6SM SCT120=

USA.gov is the U.S. government's official web portal to all federal, state and local government web resources and services.